sensor_id;sensor_type;location;lat;lon;timestamp;P1;durP1;ratioP1;P2;durP2;ratioP2
78120;SDS011;67585;44.802;10.332;2023-07-31T00:01:44;9.32;;;3.13;;
78120;SDS011;67585;44.802;10.332;2023-07-31T00:04:10;5.30;;;2.83;;
78120;SDS011;67585;44.802;10.332;2023-07-31T00:06:35;9.05;;;2.53;;
78120;SDS011;67585;44.802;10.332;2023-07-31T00:09:01;7.25;;;2.65;;
78120;SDS011;67585;44.802;10.332;2023-07-31T00:11:26;7.45;;;2.70;;
78120;SDS011;67585;44.802;10.332;2023-07-31T00:13:52;9.25;;;3.25;;
78120;SDS011;67585;44.802;10.332;2023-07-31T00:16:18;8.68;;;2.97;;
78120;SDS011;67585;44.802;10.332;2023-07-31T00:18:44;7.50;;;3.45;;
78120;SDS011;67585;44.802;10.332;2023-07-31T00:21:09;9.90;;;4.20;;
78120;SDS011;67585;44.802;10.332;2023-07-31T00:23:35;7.75;;;3.58;;
78120;SDS011;67585;44.802;10.332;2023-07-31T00:26:00;10.90;;;3.35;;
78120;SDS011;67585;44.802;10.332;2023-07-31T00:28:25;8.52;;;2.50;;
78120;SDS011;67585;44.802;10.332;2023-07-31T00:30:52;6.28;;;2.67;;
78120;SDS011;67585;44.802;10.332;2023-07-31T00:33:17;5.85;;;2.08;;
78120;SDS011;67585;44.802;10.332;2023-07-31T00:35:43;9.00;;;2.80;;
78120;SDS011;67585;44.802;10.332;2023-07-31T00:38:08;7.90;;;1.95;;
78120;SDS011;67585;44.802;10.332;2023-07-31T00:40:34;7.97;;;2.28;;
78120;SDS011;67585;44.802;10.332;2023-07-31T00:43:01;9.93;;;2.45;;
78120;SDS011;67585;44.802;10.332;2023-07-31T00:45:27;6.22;;;2.30;;
78120;SDS011;67585;44.802;10.332;2023-07-31T00:50:19;7.07;;;2.22;;
78120;SDS011;67585;44.802;10.332;2023-07-31T00:52:44;5.85;;;2.28;;
78120;SDS011;67585;44.802;10.332;2023-07-31T00:55:09;5.78;;;2.22;;
78120;SDS011;67585;44.802;10.332;2023-07-31T00:57:35;4.40;;;1.58;;
78120;SDS011;67585;44.802;10.332;2023-07-31T01:00:03;8.13;;;1.88;;
78120;SDS011;67585;44.802;10.332;2023-07-31T01:02:28;5.10;;;1.67;;
78120;SDS011;67585;44.802;10.332;2023-07-31T01:04:54;5.78;;;1.98;;
78120;SDS011;67585;44.802;10.332;2023-07-31T01:07:22;14.95;;;3.20;;
78120;SDS011;67585;44.802;10.332;2023-07-31T01:12:29;5.85;;;1.88;;
78120;SDS011;67585;44.802;10.332;2023-07-31T01:15:06;6.00;;;2.22;;
78120;SDS011;67585;44.802;10.332;2023-07-31T01:17:36;7.72;;;3.03;;
78120;SDS011;67585;44.802;10.332;2023-07-31T01:20:10;8.02;;;3.67;;
78120;SDS011;67585;44.802;10.332;2023-07-31T01:22:48;7.75;;;3.92;;
78120;SDS011;67585;44.802;10.332;2023-07-31T01:27:59;7.30;;;3.13;;
78120;SDS011;67585;44.802;10.332;2023-07-31T01:30:40;7.65;;;1.88;;
78120;SDS011;67585;44.802;10.332;2023-07-31T01:33:08;5.30;;;1.92;;
78120;SDS011;67585;44.802;10.332;2023-07-31T01:35:35;7.18;;;2.55;;
78120;SDS011;67585;44.802;10.332;2023-07-31T01:38:01;4.40;;;1.35;;
78120;SDS011;67585;44.802;10.332;2023-07-31T01:40:26;5.90;;;1.77;;
78120;SDS011;67585;44.802;10.332;2023-07-31T01:42:52;5.85;;;1.23;;
78120;SDS011;67585;44.802;10.332;2023-07-31T01:45:17;4.25;;;1.42;;
78120;SDS011;67585;44.802;10.332;2023-07-31T01:47:43;5.32;;;1.23;;
78120;SDS011;67585;44.802;10.332;2023-07-31T01:50:08;7.95;;;1.05;;
78120;SDS011;67585;44.802;10.332;2023-07-31T01:52:34;4.15;;;1.33;;
78120;SDS011;67585;44.802;10.332;2023-07-31T01:54:59;5.22;;;1.40;;
78120;SDS011;67585;44.802;10.332;2023-07-31T01:57:25;8.90;;;1.80;;
78120;SDS011;67585;44.802;10.332;2023-07-31T01:59:50;5.70;;;1.50;;
78120;SDS011;67585;44.802;10.332;2023-07-31T02:02:18;4.90;;;1.88;;
78120;SDS011;67585;44.802;10.332;2023-07-31T02:04:43;6.55;;;1.80;;
78120;SDS011;67585;44.802;10.332;2023-07-31T02:07:09;5.57;;;1.75;;
78120;SDS011;67585;44.802;10.332;2023-07-31T02:09:34;7.05;;;1.25;;
78120;SDS011;67585;44.802;10.332;2023-07-31T02:12:00;4.65;;;1.25;;
78120;SDS011;67585;44.802;10.332;2023-07-31T02:14:25;4.72;;;1.27;;
78120;SDS011;67585;44.802;10.332;2023-07-31T02:16:50;6.90;;;1.95;;
78120;SDS011;67585;44.802;10.332;2023-07-31T02:19:16;5.18;;;1.77;;
78120;SDS011;67585;44.802;10.332;2023-07-31T02:21:41;4.82;;;1.63;;
78120;SDS011;67585;44.802;10.332;2023-07-31T02:24:06;11.50;;;1.52;;
78120;SDS011;67585;44.802;10.332;2023-07-31T02:26:32;10.05;;;2.40;;
78120;SDS011;67585;44.802;10.332;2023-07-31T02:28:57;6.32;;;1.92;;
78120;SDS011;67585;44.802;10.332;2023-07-31T02:31:23;5.07;;;1.60;;
78120;SDS011;67585;44.802;10.332;2023-07-31T02:33:48;7.55;;;2.17;;
78120;SDS011;67585;44.802;10.332;2023-07-31T02:36:13;8.20;;;1.77;;
78120;SDS011;67585;44.802;10.332;2023-07-31T02:38:39;8.55;;;2.28;;
78120;SDS011;67585;44.802;10.332;2023-07-31T02:41:05;7.63;;;2.13;;
78120;SDS011;67585;44.802;10.332;2023-07-31T02:43:30;7.10;;;2.50;;
78120;SDS011;67585;44.802;10.332;2023-07-31T02:45:56;7.45;;;1.77;;
78120;SDS011;67585;44.802;10.332;2023-07-31T02:48:21;7.28;;;2.53;;
78120;SDS011;67585;44.802;10.332;2023-07-31T02:50:47;9.40;;;2.85;;
78120;SDS011;67585;44.802;10.332;2023-07-31T02:53:13;7.28;;;2.58;;
78120;SDS011;67585;44.802;10.332;2023-07-31T02:55:38;7.43;;;2.05;;
78120;SDS011;67585;44.802;10.332;2023-07-31T02:58:04;6.30;;;2.53;;
78120;SDS011;67585;44.802;10.332;2023-07-31T03:00:29;5.68;;;2.05;;
78120;SDS011;67585;44.802;10.332;2023-07-31T03:02:55;5.53;;;2.85;;
78120;SDS011;67585;44.802;10.332;2023-07-31T03:05:20;6.13;;;2.38;;
78120;SDS011;67585;44.802;10.332;2023-07-31T03:07:45;6.32;;;3.03;;
78120;SDS011;67585;44.802;10.332;2023-07-31T03:10:11;8.77;;;3.25;;
78120;SDS011;67585;44.802;10.332;2023-07-31T03:12:37;9.65;;;3.22;;
78120;SDS011;67585;44.802;10.332;2023-07-31T03:15:02;9.32;;;3.45;;
78120;SDS011;67585;44.802;10.332;2023-07-31T03:17:28;8.70;;;2.65;;
78120;SDS011;67585;44.802;10.332;2023-07-31T03:19:53;8.43;;;2.20;;
78120;SDS011;67585;44.802;10.332;2023-07-31T03:22:19;7.65;;;2.53;;
78120;SDS011;67585;44.802;10.332;2023-07-31T03:24:44;5.47;;;2.47;;
78120;SDS011;67585;44.802;10.332;2023-07-31T03:27:09;7.82;;;2.75;;
78120;SDS011;67585;44.802;10.332;2023-07-31T03:29:35;6.60;;;2.92;;
78120;SDS011;67585;44.802;10.332;2023-07-31T03:32:00;8.80;;;3.38;;
78120;SDS011;67585;44.802;10.332;2023-07-31T03:34:26;6.95;;;2.92;;
78120;SDS011;67585;44.802;10.332;2023-07-31T03:36:51;7.07;;;2.47;;
78120;SDS011;67585;44.802;10.332;2023-07-31T03:39:16;8.70;;;3.33;;
78120;SDS011;67585;44.802;10.332;2023-07-31T03:41:42;8.38;;;3.58;;
78120;SDS011;67585;44.802;10.332;2023-07-31T03:44:07;10.60;;;4.10;;
78120;SDS011;67585;44.802;10.332;2023-07-31T03:46:33;8.68;;;3.63;;
78120;SDS011;67585;44.802;10.332;2023-07-31T03:48:59;9.38;;;4.22;;
78120;SDS011;67585;44.802;10.332;2023-07-31T03:51:24;12.25;;;5.35;;
78120;SDS011;67585;44.802;10.332;2023-07-31T03:53:50;11.05;;;4.63;;
78120;SDS011;67585;44.802;10.332;2023-07-31T03:56:15;13.05;;;3.88;;
78120;SDS011;67585;44.802;10.332;2023-07-31T03:58:40;10.45;;;4.45;;
78120;SDS011;67585;44.802;10.332;2023-07-31T04:01:06;9.27;;;5.15;;
78120;SDS011;67585;44.802;10.332;2023-07-31T04:03:31;10.18;;;4.97;;
78120;SDS011;67585;44.802;10.332;2023-07-31T04:05:57;15.07;;;6.25;;
78120;SDS011;67585;44.802;10.332;2023-07-31T04:08:22;10.75;;;4.88;;
78120;SDS011;67585;44.802;10.332;2023-07-31T04:10:48;10.40;;;4.72;;
78120;SDS011;67585;44.802;10.332;2023-07-31T04:13:14;10.35;;;4.85;;
78120;SDS011;67585;44.802;10.332;2023-07-31T04:15:39;10.30;;;5.10;;
78120;SDS011;67585;44.802;10.332;2023-07-31T04:18:05;9.73;;;4.82;;
78120;SDS011;67585;44.802;10.332;2023-07-31T04:20:30;10.70;;;5.00;;
78120;SDS011;67585;44.802;10.332;2023-07-31T04:22:56;11.48;;;5.80;;
78120;SDS011;67585;44.802;10.332;2023-07-31T04:25:21;12.80;;;5.75;;
78120;SDS011;67585;44.802;10.332;2023-07-31T04:27:46;16.17;;;7.22;;
78120;SDS011;67585;44.802;10.332;2023-07-31T04:30:12;15.68;;;5.80;;
78120;SDS011;67585;44.802;10.332;2023-07-31T04:32:37;14.38;;;7.57;;
78120;SDS011;67585;44.802;10.332;2023-07-31T04:35:03;11.45;;;6.68;;
78120;SDS011;67585;44.802;10.332;2023-07-31T04:37:28;13.57;;;6.80;;
78120;SDS011;67585;44.802;10.332;2023-07-31T04:39:54;12.35;;;7.53;;
78120;SDS011;67585;44.802;10.332;2023-07-31T04:42:19;14.70;;;8.18;;
78120;SDS011;67585;44.802;10.332;2023-07-31T04:44:44;13.20;;;7.55;;
78120;SDS011;67585;44.802;10.332;2023-07-31T04:47:10;16.90;;;8.05;;
78120;SDS011;67585;44.802;10.332;2023-07-31T04:49:35;14.48;;;7.85;;
78120;SDS011;67585;44.802;10.332;2023-07-31T04:52:01;14.57;;;7.25;;
78120;SDS011;67585;44.802;10.332;2023-07-31T04:54:26;12.70;;;8.30;;
78120;SDS011;67585;44.802;10.332;2023-07-31T04:56:51;17.77;;;7.75;;
78120;SDS011;67585;44.802;10.332;2023-07-31T04:59:17;14.70;;;7.65;;
78120;SDS011;67585;44.802;10.332;2023-07-31T05:01:45;12.70;;;7.35;;
78120;SDS011;67585;44.802;10.332;2023-07-31T05:04:14;14.38;;;6.68;;
78120;SDS011;67585;44.802;10.332;2023-07-31T05:06:40;14.43;;;6.63;;
78120;SDS011;67585;44.802;10.332;2023-07-31T05:09:07;11.43;;;5.68;;
78120;SDS011;67585;44.802;10.332;2023-07-31T05:11:34;13.40;;;6.25;;
78120;SDS011;67585;44.802;10.332;2023-07-31T05:14:00;14.52;;;5.90;;
78120;SDS011;67585;44.802;10.332;2023-07-31T05:16:25;9.85;;;4.22;;
78120;SDS011;67585;44.802;10.332;2023-07-31T05:18:51;7.40;;;3.75;;
78120;SDS011;67585;44.802;10.332;2023-07-31T05:21:16;10.52;;;3.97;;
78120;SDS011;67585;44.802;10.332;2023-07-31T05:23:42;7.97;;;4.00;;
78120;SDS011;67585;44.802;10.332;2023-07-31T05:26:07;8.65;;;3.30;;
78120;SDS011;67585;44.802;10.332;2023-07-31T05:28:35;10.43;;;3.67;;
78120;SDS011;67585;44.802;10.332;2023-07-31T05:31:01;8.70;;;3.22;;
78120;SDS011;67585;44.802;10.332;2023-07-31T05:33:30;7.60;;;3.08;;
78120;SDS011;67585;44.802;10.332;2023-07-31T05:35:56;8.63;;;3.10;;
78120;SDS011;67585;44.802;10.332;2023-07-31T05:38:22;7.60;;;2.60;;
78120;SDS011;67585;44.802;10.332;2023-07-31T05:40:47;9.48;;;2.63;;
78120;SDS011;67585;44.802;10.332;2023-07-31T05:43:13;7.75;;;2.40;;
78120;SDS011;67585;44.802;10.332;2023-07-31T05:48:05;7.95;;;2.08;;
78120;SDS011;67585;44.802;10.332;2023-07-31T05:50:31;7.25;;;2.40;;
78120;SDS011;67585;44.802;10.332;2023-07-31T05:52:56;6.80;;;2.55;;
78120;SDS011;67585;44.802;10.332;2023-07-31T05:55:22;6.95;;;2.20;;
78120;SDS011;67585;44.802;10.332;2023-07-31T05:57:48;7.20;;;1.95;;
78120;SDS011;67585;44.802;10.332;2023-07-31T06:00:13;7.30;;;1.90;;
78120;SDS011;67585;44.802;10.332;2023-07-31T06:02:39;9.13;;;2.28;;
78120;SDS011;67585;44.802;10.332;2023-07-31T06:05:05;9.13;;;1.75;;
78120;SDS011;67585;44.802;10.332;2023-07-31T06:07:33;7.05;;;1.65;;
78120;SDS011;67585;44.802;10.332;2023-07-31T06:09:59;5.78;;;1.73;;
78120;SDS011;67585;44.802;10.332;2023-07-31T06:12:31;6.85;;;1.83;;
78120;SDS011;67585;44.802;10.332;2023-07-31T06:14:57;7.32;;;1.35;;
78120;SDS011;67585;44.802;10.332;2023-07-31T06:17:22;5.35;;;2.03;;
78120;SDS011;67585;44.802;10.332;2023-07-31T06:19:48;6.72;;;2.13;;
78120;SDS011;67585;44.802;10.332;2023-07-31T06:22:14;9.25;;;2.92;;
78120;SDS011;67585;44.802;10.332;2023-07-31T06:24:40;8.65;;;2.65;;
78120;SDS011;67585;44.802;10.332;2023-07-31T06:27:05;6.93;;;1.98;;
78120;SDS011;67585;44.802;10.332;2023-07-31T06:29:31;8.02;;;2.63;;
78120;SDS011;67585;44.802;10.332;2023-07-31T06:31:57;6.60;;;2.20;;
78120;SDS011;67585;44.802;10.332;2023-07-31T06:34:24;5.57;;;2.13;;
78120;SDS011;67585;44.802;10.332;2023-07-31T06:36:49;9.77;;;2.15;;
78120;SDS011;67585;44.802;10.332;2023-07-31T06:39:14;7.50;;;2.92;;
78120;SDS011;67585;44.802;10.332;2023-07-31T06:41:40;7.90;;;2.63;;
78120;SDS011;67585;44.802;10.332;2023-07-31T06:44:06;6.00;;;2.30;;
78120;SDS011;67585;44.802;10.332;2023-07-31T06:46:32;8.68;;;1.90;;
78120;SDS011;67585;44.802;10.332;2023-07-31T06:48:57;9.23;;;1.67;;
78120;SDS011;67585;44.802;10.332;2023-07-31T06:51:23;16.20;;;3.78;;
78120;SDS011;67585;44.802;10.332;2023-07-31T06:53:51;9.48;;;2.33;;
78120;SDS011;67585;44.802;10.332;2023-07-31T06:56:16;7.97;;;2.28;;
78120;SDS011;67585;44.802;10.332;2023-07-31T06:58:42;8.40;;;1.95;;
78120;SDS011;67585;44.802;10.332;2023-07-31T07:01:08;9.68;;;3.72;;
78120;SDS011;67585;44.802;10.332;2023-07-31T07:03:33;9.68;;;2.72;;
78120;SDS011;67585;44.802;10.332;2023-07-31T07:05:59;10.60;;;2.97;;
78120;SDS011;67585;44.802;10.332;2023-07-31T07:08:24;6.47;;;2.47;;
78120;SDS011;67585;44.802;10.332;2023-07-31T07:10:50;8.93;;;3.13;;
78120;SDS011;67585;44.802;10.332;2023-07-31T07:13:15;9.57;;;2.33;;
78120;SDS011;67585;44.802;10.332;2023-07-31T07:15:50;7.05;;;2.08;;
78120;SDS011;67585;44.802;10.332;2023-07-31T07:18:16;8.32;;;1.58;;
78120;SDS011;67585;44.802;10.332;2023-07-31T07:20:52;6.57;;;2.15;;
78120;SDS011;67585;44.802;10.332;2023-07-31T07:23:19;7.72;;;1.90;;
78120;SDS011;67585;44.802;10.332;2023-07-31T07:25:45;9.80;;;1.75;;
78120;SDS011;67585;44.802;10.332;2023-07-31T07:28:10;4.97;;;1.50;;
78120;SDS011;67585;44.802;10.332;2023-07-31T07:30:36;6.43;;;1.80;;
78120;SDS011;67585;44.802;10.332;2023-07-31T07:33:01;6.28;;;1.40;;
78120;SDS011;67585;44.802;10.332;2023-07-31T07:35:27;7.97;;;2.00;;
78120;SDS011;67585;44.802;10.332;2023-07-31T07:37:52;5.93;;;1.88;;
78120;SDS011;67585;44.802;10.332;2023-07-31T07:40:18;6.15;;;1.98;;
78120;SDS011;67585;44.802;10.332;2023-07-31T07:42:44;6.15;;;2.38;;
78120;SDS011;67585;44.802;10.332;2023-07-31T07:45:09;6.05;;;2.45;;
78120;SDS011;67585;44.802;10.332;2023-07-31T07:47:35;7.00;;;2.65;;
78120;SDS011;67585;44.802;10.332;2023-07-31T07:50:00;7.57;;;2.97;;
78120;SDS011;67585;44.802;10.332;2023-07-31T07:52:26;7.53;;;3.30;;
78120;SDS011;67585;44.802;10.332;2023-07-31T07:54:51;8.27;;;3.17;;
78120;SDS011;67585;44.802;10.332;2023-07-31T07:57:17;10.70;;;4.82;;
78120;SDS011;67585;44.802;10.332;2023-07-31T07:59:43;7.18;;;2.88;;
78120;SDS011;67585;44.802;10.332;2023-07-31T08:02:09;10.57;;;4.05;;
78120;SDS011;67585;44.802;10.332;2023-07-31T08:04:34;9.07;;;3.33;;
78120;SDS011;67585;44.802;10.332;2023-07-31T08:06:59;8.25;;;3.90;;
78120;SDS011;67585;44.802;10.332;2023-07-31T08:09:25;9.35;;;5.20;;
78120;SDS011;67585;44.802;10.332;2023-07-31T08:11:50;10.50;;;5.28;;
78120;SDS011;67585;44.802;10.332;2023-07-31T08:14:15;12.40;;;5.90;;
78120;SDS011;67585;44.802;10.332;2023-07-31T08:16:41;8.38;;;4.07;;
78120;SDS011;67585;44.802;10.332;2023-07-31T08:19:07;10.65;;;3.78;;
78120;SDS011;67585;44.802;10.332;2023-07-31T08:21:33;7.72;;;3.40;;
78120;SDS011;67585;44.802;10.332;2023-07-31T08:23:58;7.30;;;1.42;;
78120;SDS011;67585;44.802;10.332;2023-07-31T08:26:23;5.57;;;1.83;;
78120;SDS011;67585;44.802;10.332;2023-07-31T08:28:49;5.57;;;0.65;;
78120;SDS011;67585;44.802;10.332;2023-07-31T08:31:14;3.65;;;0.80;;
78120;SDS011;67585;44.802;10.332;2023-07-31T08:33:40;4.30;;;0.57;;
78120;SDS011;67585;44.802;10.332;2023-07-31T08:36:05;8.43;;;0.80;;
78120;SDS011;67585;44.802;10.332;2023-07-31T08:38:31;7.03;;;0.73;;
78120;SDS011;67585;44.802;10.332;2023-07-31T08:40:57;2.95;;;0.90;;
78120;SDS011;67585;44.802;10.332;2023-07-31T08:43:24;3.00;;;0.52;;
78120;SDS011;67585;44.802;10.332;2023-07-31T08:45:51;2.83;;;0.50;;
78120;SDS011;67585;44.802;10.332;2023-07-31T08:48:17;3.03;;;0.63;;
78120;SDS011;67585;44.802;10.332;2023-07-31T08:50:44;1.98;;;0.77;;
78120;SDS011;67585;44.802;10.332;2023-07-31T08:53:10;2.30;;;0.55;;
78120;SDS011;67585;44.802;10.332;2023-07-31T08:55:36;2.83;;;0.55;;
78120;SDS011;67585;44.802;10.332;2023-07-31T08:58:03;2.15;;;0.47;;
78120;SDS011;67585;44.802;10.332;2023-07-31T09:00:30;1.77;;;0.20;;
78120;SDS011;67585;44.802;10.332;2023-07-31T09:03:07;4.68;;;0.55;;
78120;SDS011;67585;44.802;10.332;2023-07-31T09:05:35;2.88;;;0.40;;
78120;SDS011;67585;44.802;10.332;2023-07-31T09:08:02;2.17;;;0.55;;
78120;SDS011;67585;44.802;10.332;2023-07-31T09:10:30;3.75;;;0.75;;
78120;SDS011;67585;44.802;10.332;2023-07-31T09:12:55;1.75;;;0.20;;
78120;SDS011;67585;44.802;10.332;2023-07-31T09:15:21;3.47;;;0.60;;
78120;SDS011;67585;44.802;10.332;2023-07-31T09:17:48;2.40;;;0.68;;
78120;SDS011;67585;44.802;10.332;2023-07-31T09:20:24;2.50;;;1.05;;
78120;SDS011;67585;44.802;10.332;2023-07-31T09:22:51;4.45;;;1.50;;
78120;SDS011;67585;44.802;10.332;2023-07-31T09:27:59;3.50;;;0.85;;
78120;SDS011;67585;44.802;10.332;2023-07-31T09:30:43;5.38;;;1.35;;
78120;SDS011;67585;44.802;10.332;2023-07-31T09:33:11;2.78;;;0.73;;
78120;SDS011;67585;44.802;10.332;2023-07-31T09:35:36;2.90;;;1.05;;
78120;SDS011;67585;44.802;10.332;2023-07-31T09:38:09;4.53;;;1.10;;
78120;SDS011;67585;44.802;10.332;2023-07-31T09:40:36;2.65;;;0.95;;
78120;SDS011;67585;44.802;10.332;2023-07-31T09:43:07;4.22;;;2.20;;
78120;SDS011;67585;44.802;10.332;2023-07-31T09:45:35;6.13;;;2.78;;
78120;SDS011;67585;44.802;10.332;2023-07-31T09:48:11;7.82;;;3.17;;
78120;SDS011;67585;44.802;10.332;2023-07-31T09:50:47;4.20;;;1.92;;
78120;SDS011;67585;44.802;10.332;2023-07-31T09:53:14;10.40;;;3.25;;
78120;SDS011;67585;44.802;10.332;2023-07-31T09:55:41;6.78;;;2.60;;
78120;SDS011;67585;44.802;10.332;2023-07-31T09:58:08;6.85;;;3.15;;
78120;SDS011;67585;44.802;10.332;2023-07-31T10:00:34;7.07;;;4.53;;
78120;SDS011;67585;44.802;10.332;2023-07-31T10:03:01;6.47;;;4.35;;
78120;SDS011;67585;44.802;10.332;2023-07-31T10:05:31;4.97;;;3.33;;
78120;SDS011;67585;44.802;10.332;2023-07-31T10:08:14;4.88;;;1.85;;
78120;SDS011;67585;44.802;10.332;2023-07-31T10:10:41;6.57;;;1.48;;
78120;SDS011;67585;44.802;10.332;2023-07-31T10:13:09;4.82;;;2.42;;
78120;SDS011;67585;44.802;10.332;2023-07-31T10:15:34;3.30;;;1.30;;
78120;SDS011;67585;44.802;10.332;2023-07-31T10:18:01;4.85;;;2.60;;
78120;SDS011;67585;44.802;10.332;2023-07-31T10:22:57;4.15;;;1.42;;
78120;SDS011;67585;44.802;10.332;2023-07-31T10:25:24;5.75;;;2.13;;
78120;SDS011;67585;44.802;10.332;2023-07-31T10:27:51;5.00;;;1.60;;
78120;SDS011;67585;44.802;10.332;2023-07-31T10:30:18;4.22;;;1.55;;
78120;SDS011;67585;44.802;10.332;2023-07-31T10:32:47;6.18;;;1.75;;
78120;SDS011;67585;44.802;10.332;2023-07-31T10:35:15;4.97;;;1.95;;
78120;SDS011;67585;44.802;10.332;2023-07-31T10:37:42;5.78;;;3.03;;
78120;SDS011;67585;44.802;10.332;2023-07-31T10:42:46;4.50;;;1.98;;
78120;SDS011;67585;44.802;10.332;2023-07-31T10:45:23;4.53;;;1.85;;
78120;SDS011;67585;44.802;10.332;2023-07-31T10:47:51;3.08;;;0.85;;
78120;SDS011;67585;44.802;10.332;2023-07-31T10:50:26;6.00;;;1.13;;
78120;SDS011;67585;44.802;10.332;2023-07-31T10:52:52;4.25;;;0.68;;
78120;SDS011;67585;44.802;10.332;2023-07-31T10:57:51;4.50;;;0.70;;
78120;SDS011;67585;44.802;10.332;2023-07-31T11:00:17;2.85;;;0.98;;
78120;SDS011;67585;44.802;10.332;2023-07-31T11:02:58;2.25;;;1.15;;
78120;SDS011;67585;44.802;10.332;2023-07-31T11:10:41;5.50;;;1.85;;
78120;SDS011;67585;44.802;10.332;2023-07-31T11:13:08;2.70;;;1.33;;
78120;SDS011;67585;44.802;10.332;2023-07-31T11:15:34;2.83;;;1.25;;
78120;SDS011;67585;44.802;10.332;2023-07-31T11:18:00;3.05;;;1.35;;
78120;SDS011;67585;44.802;10.332;2023-07-31T11:20:31;2.45;;;0.77;;
78120;SDS011;67585;44.802;10.332;2023-07-31T11:23:01;3.10;;;0.68;;
78120;SDS011;67585;44.802;10.332;2023-07-31T11:25:29;2.05;;;0.77;;
78120;SDS011;67585;44.802;10.332;2023-07-31T11:27:56;3.15;;;0.88;;
78120;SDS011;67585;44.802;10.332;2023-07-31T11:30:22;4.95;;;1.75;;
78120;SDS011;67585;44.802;10.332;2023-07-31T11:32:47;4.30;;;0.98;;
78120;SDS011;67585;44.802;10.332;2023-07-31T11:35:14;3.85;;;1.65;;
78120;SDS011;67585;44.802;10.332;2023-07-31T11:37:42;7.05;;;1.65;;
78120;SDS011;67585;44.802;10.332;2023-07-31T11:40:09;4.85;;;1.50;;
78120;SDS011;67585;44.802;10.332;2023-07-31T11:45:04;3.90;;;1.23;;
78120;SDS011;67585;44.802;10.332;2023-07-31T11:47:32;4.18;;;1.30;;
78120;SDS011;67585;44.802;10.332;2023-07-31T11:50:00;6.78;;;1.48;;
78120;SDS011;67585;44.802;10.332;2023-07-31T11:52:26;2.75;;;1.50;;
78120;SDS011;67585;44.802;10.332;2023-07-31T11:54:55;4.78;;;1.15;;
78120;SDS011;67585;44.802;10.332;2023-07-31T11:57:21;3.50;;;1.40;;
78120;SDS011;67585;44.802;10.332;2023-07-31T11:59:47;4.57;;;0.88;;
78120;SDS011;67585;44.802;10.332;2023-07-31T12:02:13;5.50;;;2.03;;
78120;SDS011;67585;44.802;10.332;2023-07-31T12:04:39;4.43;;;2.25;;
78120;SDS011;67585;44.802;10.332;2023-07-31T12:07:05;4.47;;;1.48;;
78120;SDS011;67585;44.802;10.332;2023-07-31T12:09:30;6.68;;;1.02;;
78120;SDS011;67585;44.802;10.332;2023-07-31T12:11:56;3.33;;;2.03;;
78120;SDS011;67585;44.802;10.332;2023-07-31T12:14:22;4.82;;;1.38;;
78120;SDS011;67585;44.802;10.332;2023-07-31T12:16:57;4.32;;;1.10;;
78120;SDS011;67585;44.802;10.332;2023-07-31T12:19:29;3.88;;;1.85;;
78120;SDS011;67585;44.802;10.332;2023-07-31T12:21:58;4.95;;;1.67;;
78120;SDS011;67585;44.802;10.332;2023-07-31T12:24:28;4.85;;;1.52;;
78120;SDS011;67585;44.802;10.332;2023-07-31T12:26:53;3.42;;;0.90;;
78120;SDS011;67585;44.802;10.332;2023-07-31T12:29:20;3.80;;;1.58;;
78120;SDS011;67585;44.802;10.332;2023-07-31T12:31:45;7.03;;;1.73;;
78120;SDS011;67585;44.802;10.332;2023-07-31T12:34:15;3.72;;;1.38;;
78120;SDS011;67585;44.802;10.332;2023-07-31T12:36:46;4.45;;;1.55;;
78120;SDS011;67585;44.802;10.332;2023-07-31T12:39:13;5.50;;;1.17;;
78120;SDS011;67585;44.802;10.332;2023-07-31T12:41:39;3.78;;;1.40;;
78120;SDS011;67585;44.802;10.332;2023-07-31T12:44:05;3.80;;;1.63;;
78120;SDS011;67585;44.802;10.332;2023-07-31T12:46:30;6.45;;;1.33;;
78120;SDS011;67585;44.802;10.332;2023-07-31T12:48:56;3.20;;;1.50;;
78120;SDS011;67585;44.802;10.332;2023-07-31T12:51:21;3.72;;;1.23;;
78120;SDS011;67585;44.802;10.332;2023-07-31T12:53:47;6.28;;;0.98;;
78120;SDS011;67585;44.802;10.332;2023-07-31T12:56:12;3.08;;;1.02;;
78120;SDS011;67585;44.802;10.332;2023-07-31T12:58:38;2.22;;;1.00;;
78120;SDS011;67585;44.802;10.332;2023-07-31T13:01:03;3.97;;;0.50;;
78120;SDS011;67585;44.802;10.332;2023-07-31T13:03:28;3.38;;;0.73;;
78120;SDS011;67585;44.802;10.332;2023-07-31T13:05:54;4.78;;;1.42;;
78120;SDS011;67585;44.802;10.332;2023-07-31T13:08:20;2.80;;;1.20;;
78120;SDS011;67585;44.802;10.332;2023-07-31T13:10:45;4.72;;;1.55;;
78120;SDS011;67585;44.802;10.332;2023-07-31T13:13:11;6.00;;;2.10;;
78120;SDS011;67585;44.802;10.332;2023-07-31T13:15:37;4.72;;;1.30;;
78120;SDS011;67585;44.802;10.332;2023-07-31T13:18:02;4.38;;;1.23;;
78120;SDS011;67585;44.802;10.332;2023-07-31T13:20:28;3.42;;;1.33;;
78120;SDS011;67585;44.802;10.332;2023-07-31T13:22:53;4.13;;;1.10;;
78120;SDS011;67585;44.802;10.332;2023-07-31T13:25:18;4.45;;;1.38;;
78120;SDS011;67585;44.802;10.332;2023-07-31T13:27:44;3.05;;;1.27;;
78120;SDS011;67585;44.802;10.332;2023-07-31T13:30:09;4.97;;;1.73;;
78120;SDS011;67585;44.802;10.332;2023-07-31T13:32:35;3.35;;;1.52;;
78120;SDS011;67585;44.802;10.332;2023-07-31T13:35:04;2.95;;;1.38;;
78120;SDS011;67585;44.802;10.332;2023-07-31T13:37:30;4.38;;;2.20;;
78120;SDS011;67585;44.802;10.332;2023-07-31T13:39:56;4.78;;;1.45;;
78120;SDS011;67585;44.802;10.332;2023-07-31T13:42:21;4.90;;;1.65;;
78120;SDS011;67585;44.802;10.332;2023-07-31T13:44:47;3.78;;;1.23;;
78120;SDS011;67585;44.802;10.332;2023-07-31T13:47:12;4.80;;;1.67;;
78120;SDS011;67585;44.802;10.332;2023-07-31T13:49:38;3.47;;;1.58;;
78120;SDS011;67585;44.802;10.332;2023-07-31T13:52:04;3.88;;;1.35;;
78120;SDS011;67585;44.802;10.332;2023-07-31T13:54:29;8.50;;;1.23;;
78120;SDS011;67585;44.802;10.332;2023-07-31T13:56:55;3.60;;;1.25;;
78120;SDS011;67585;44.802;10.332;2023-07-31T13:59:21;8.25;;;1.67;;
78120;SDS011;67585;44.802;10.332;2023-07-31T14:01:46;3.13;;;1.88;;
78120;SDS011;67585;44.802;10.332;2023-07-31T14:04:13;4.80;;;1.85;;
78120;SDS011;67585;44.802;10.332;2023-07-31T14:06:39;3.67;;;1.35;;
78120;SDS011;67585;44.802;10.332;2023-07-31T14:09:04;4.38;;;1.27;;
78120;SDS011;67585;44.802;10.332;2023-07-31T14:11:30;3.25;;;1.10;;
78120;SDS011;67585;44.802;10.332;2023-07-31T14:13:56;2.45;;;0.80;;
78120;SDS011;67585;44.802;10.332;2023-07-31T14:16:22;3.25;;;1.45;;
78120;SDS011;67585;44.802;10.332;2023-07-31T14:18:48;3.33;;;0.95;;
78120;SDS011;67585;44.802;10.332;2023-07-31T14:21:13;4.50;;;0.80;;
78120;SDS011;67585;44.802;10.332;2023-07-31T14:23:39;4.70;;;1.58;;
78120;SDS011;67585;44.802;10.332;2023-07-31T14:26:05;3.80;;;1.20;;
78120;SDS011;67585;44.802;10.332;2023-07-31T14:28:31;3.38;;;0.75;;
78120;SDS011;67585;44.802;10.332;2023-07-31T14:30:57;3.15;;;1.10;;
78120;SDS011;67585;44.802;10.332;2023-07-31T14:33:23;6.00;;;1.50;;
78120;SDS011;67585;44.802;10.332;2023-07-31T14:35:52;3.17;;;1.02;;
78120;SDS011;67585;44.802;10.332;2023-07-31T14:38:17;3.92;;;1.27;;
78120;SDS011;67585;44.802;10.332;2023-07-31T14:40:43;4.05;;;2.35;;
78120;SDS011;67585;44.802;10.332;2023-07-31T14:43:08;4.55;;;1.35;;
78120;SDS011;67585;44.802;10.332;2023-07-31T14:45:34;4.65;;;2.00;;
78120;SDS011;67585;44.802;10.332;2023-07-31T14:47:59;4.15;;;1.45;;
78120;SDS011;67585;44.802;10.332;2023-07-31T14:50:25;3.65;;;2.08;;
78120;SDS011;67585;44.802;10.332;2023-07-31T14:52:50;3.47;;;1.40;;
78120;SDS011;67585;44.802;10.332;2023-07-31T14:55:16;5.88;;;1.85;;
78120;SDS011;67585;44.802;10.332;2023-07-31T14:57:42;4.13;;;2.10;;